sensor_id;sensor_type;location;lat;lon;timestamp;P1;durP1;ratioP1;P2;durP2;ratioP2
41927;SDS011;27616;51.420;6.788;2022-10-16T00:01:16;9.70;;;4.38;;
41927;SDS011;27616;51.420;6.788;2022-10-16T00:03:43;8.30;;;4.55;;
41927;SDS011;27616;51.420;6.788;2022-10-16T00:06:10;8.23;;;4.70;;
41927;SDS011;27616;51.420;6.788;2022-10-16T00:08:38;9.77;;;5.63;;
41927;SDS011;27616;51.420;6.788;2022-10-16T00:13:32;11.73;;;5.10;;
41927;SDS011;27616;51.420;6.788;2022-10-16T00:16:01;11.10;;;4.65;;
41927;SDS011;27616;51.420;6.788;2022-10-16T00:18:27;7.45;;;4.50;;
41927;SDS011;27616;51.420;6.788;2022-10-16T00:20:54;8.52;;;4.57;;
41927;SDS011;27616;51.420;6.788;2022-10-16T00:23:21;8.40;;;4.40;;
41927;SDS011;27616;51.420;6.788;2022-10-16T00:25:54;7.78;;;4.15;;
41927;SDS011;27616;51.420;6.788;2022-10-16T00:28:23;8.30;;;4.10;;
41927;SDS011;27616;51.420;6.788;2022-10-16T00:30:49;8.60;;;4.13;;
41927;SDS011;27616;51.420;6.788;2022-10-16T00:33:15;9.70;;;4.53;;
41927;SDS011;27616;51.420;6.788;2022-10-16T00:35:41;8.52;;;4.40;;
41927;SDS011;27616;51.420;6.788;2022-10-16T00:38:07;8.00;;;4.28;;
41927;SDS011;27616;51.420;6.788;2022-10-16T00:40:33;9.55;;;4.55;;
41927;SDS011;27616;51.420;6.788;2022-10-16T00:42:59;7.55;;;4.40;;
41927;SDS011;27616;51.420;6.788;2022-10-16T00:45:25;11.45;;;4.70;;
41927;SDS011;27616;51.420;6.788;2022-10-16T00:47:51;7.40;;;4.65;;
41927;SDS011;27616;51.420;6.788;2022-10-16T00:52:56;8.52;;;4.68;;
41927;SDS011;27616;51.420;6.788;2022-10-16T00:55:24;10.18;;;5.45;;
41927;SDS011;27616;51.420;6.788;2022-10-16T00:57:50;8.30;;;5.20;;
41927;SDS011;27616;51.420;6.788;2022-10-16T01:00:18;8.95;;;5.28;;
41927;SDS011;27616;51.420;6.788;2022-10-16T01:02:53;10.38;;;4.88;;
41927;SDS011;27616;51.420;6.788;2022-10-16T01:05:21;12.02;;;6.25;;
41927;SDS011;27616;51.420;6.788;2022-10-16T01:13:07;9.02;;;5.25;;
41927;SDS011;27616;51.420;6.788;2022-10-16T01:20:47;7.10;;;4.60;;
41927;SDS011;27616;51.420;6.788;2022-10-16T01:33:02;11.82;;;5.50;;
41927;SDS011;27616;51.420;6.788;2022-10-16T01:35:38;8.35;;;5.00;;
41927;SDS011;27616;51.420;6.788;2022-10-16T01:38:21;9.70;;;4.50;;
41927;SDS011;27616;51.420;6.788;2022-10-16T01:41:12;6.95;;;4.05;;
41927;SDS011;27616;51.420;6.788;2022-10-16T01:44:19;11.30;;;4.97;;
41927;SDS011;27616;51.420;6.788;2022-10-16T01:46:48;8.02;;;4.80;;
41927;SDS011;27616;51.420;6.788;2022-10-16T01:49:20;7.45;;;4.05;;
41927;SDS011;27616;51.420;6.788;2022-10-16T01:51:48;8.68;;;4.80;;
41927;SDS011;27616;51.420;6.788;2022-10-16T01:54:19;8.82;;;5.40;;
41927;SDS011;27616;51.420;6.788;2022-10-16T01:59:16;9.43;;;4.60;;
41927;SDS011;27616;51.420;6.788;2022-10-16T02:01:47;12.52;;;5.63;;
41927;SDS011;27616;51.420;6.788;2022-10-16T02:04:38;9.98;;;4.95;;
41927;SDS011;27616;51.420;6.788;2022-10-16T02:07:07;8.15;;;4.40;;
41927;SDS011;27616;51.420;6.788;2022-10-16T02:09:34;9.10;;;4.28;;
41927;SDS011;27616;51.420;6.788;2022-10-16T02:12:02;6.82;;;4.10;;
41927;SDS011;27616;51.420;6.788;2022-10-16T02:14:33;8.15;;;3.88;;
41927;SDS011;27616;51.420;6.788;2022-10-16T02:17:09;6.97;;;3.60;;
41927;SDS011;27616;51.420;6.788;2022-10-16T02:19:40;5.00;;;3.22;;
41927;SDS011;27616;51.420;6.788;2022-10-16T02:22:08;4.75;;;2.92;;
41927;SDS011;27616;51.420;6.788;2022-10-16T02:30:10;5.38;;;2.17;;
41927;SDS011;27616;51.420;6.788;2022-10-16T02:33:01;6.43;;;2.33;;
41927;SDS011;27616;51.420;6.788;2022-10-16T02:37:56;4.63;;;1.98;;
41927;SDS011;27616;51.420;6.788;2022-10-16T02:40:23;6.20;;;2.15;;
41927;SDS011;27616;51.420;6.788;2022-10-16T02:42:51;5.13;;;2.25;;
41927;SDS011;27616;51.420;6.788;2022-10-16T02:45:18;5.85;;;2.17;;
41927;SDS011;27616;51.420;6.788;2022-10-16T02:47:44;4.55;;;1.90;;
41927;SDS011;27616;51.420;6.788;2022-10-16T02:50:10;4.93;;;2.00;;
41927;SDS011;27616;51.420;6.788;2022-10-16T02:52:36;3.22;;;1.70;;
41927;SDS011;27616;51.420;6.788;2022-10-16T02:55:02;4.70;;;1.90;;
41927;SDS011;27616;51.420;6.788;2022-10-16T02:57:28;3.75;;;1.70;;
41927;SDS011;27616;51.420;6.788;2022-10-16T02:59:54;4.20;;;1.90;;
41927;SDS011;27616;51.420;6.788;2022-10-16T03:02:20;7.63;;;2.42;;
41927;SDS011;27616;51.420;6.788;2022-10-16T03:04:46;3.63;;;1.67;;
41927;SDS011;27616;51.420;6.788;2022-10-16T03:07:12;4.13;;;1.63;;
41927;SDS011;27616;51.420;6.788;2022-10-16T03:09:38;5.22;;;2.10;;
41927;SDS011;27616;51.420;6.788;2022-10-16T03:12:04;5.47;;;1.80;;
41927;SDS011;27616;51.420;6.788;2022-10-16T03:14:30;5.28;;;1.70;;
41927;SDS011;27616;51.420;6.788;2022-10-16T03:16:55;4.35;;;1.90;;
41927;SDS011;27616;51.420;6.788;2022-10-16T03:19:21;2.40;;;1.50;;
41927;SDS011;27616;51.420;6.788;2022-10-16T03:21:47;4.47;;;1.95;;
41927;SDS011;27616;51.420;6.788;2022-10-16T03:24:13;3.72;;;1.65;;
41927;SDS011;27616;51.420;6.788;2022-10-16T03:26:39;4.28;;;1.67;;
41927;SDS011;27616;51.420;6.788;2022-10-16T03:29:05;3.40;;;1.60;;
41927;SDS011;27616;51.420;6.788;2022-10-16T03:31:31;7.32;;;1.60;;
41927;SDS011;27616;51.420;6.788;2022-10-16T03:33:57;4.88;;;1.60;;
41927;SDS011;27616;51.420;6.788;2022-10-16T03:36:23;2.75;;;1.30;;
41927;SDS011;27616;51.420;6.788;2022-10-16T03:38:49;2.83;;;1.40;;
41927;SDS011;27616;51.420;6.788;2022-10-16T03:41:15;4.85;;;1.63;;
41927;SDS011;27616;51.420;6.788;2022-10-16T03:43:41;2.75;;;1.33;;
41927;SDS011;27616;51.420;6.788;2022-10-16T03:46:07;5.38;;;1.60;;
41927;SDS011;27616;51.420;6.788;2022-10-16T03:48:32;2.47;;;1.30;;
41927;SDS011;27616;51.420;6.788;2022-10-16T03:50:58;3.05;;;1.30;;
41927;SDS011;27616;51.420;6.788;2022-10-16T03:53:24;2.60;;;1.40;;
41927;SDS011;27616;51.420;6.788;2022-10-16T03:55:50;3.03;;;1.30;;
41927;SDS011;27616;51.420;6.788;2022-10-16T03:58:16;3.67;;;1.63;;
41927;SDS011;27616;51.420;6.788;2022-10-16T04:00:43;3.60;;;1.38;;
41927;SDS011;27616;51.420;6.788;2022-10-16T04:03:10;4.63;;;1.35;;
41927;SDS011;27616;51.420;6.788;2022-10-16T04:05:36;3.72;;;1.30;;
41927;SDS011;27616;51.420;6.788;2022-10-16T04:08:02;3.20;;;1.30;;
41927;SDS011;27616;51.420;6.788;2022-10-16T04:10:28;3.95;;;1.50;;
41927;SDS011;27616;51.420;6.788;2022-10-16T04:12:54;4.43;;;1.35;;
41927;SDS011;27616;51.420;6.788;2022-10-16T04:15:21;2.95;;;1.25;;
41927;SDS011;27616;51.420;6.788;2022-10-16T04:17:51;2.83;;;1.10;;
41927;SDS011;27616;51.420;6.788;2022-10-16T04:20:17;2.90;;;1.35;;
41927;SDS011;27616;51.420;6.788;2022-10-16T04:22:44;3.67;;;1.42;;
41927;SDS011;27616;51.420;6.788;2022-10-16T04:25:10;3.03;;;1.10;;
41927;SDS011;27616;51.420;6.788;2022-10-16T04:27:37;4.53;;;1.30;;
41927;SDS011;27616;51.420;6.788;2022-10-16T04:30:03;4.70;;;1.50;;
41927;SDS011;27616;51.420;6.788;2022-10-16T04:32:30;2.25;;;1.20;;
41927;SDS011;27616;51.420;6.788;2022-10-16T04:34:56;2.40;;;1.38;;
41927;SDS011;27616;51.420;6.788;2022-10-16T04:37:25;4.70;;;1.13;;
41927;SDS011;27616;51.420;6.788;2022-10-16T04:39:52;3.72;;;1.38;;
41927;SDS011;27616;51.420;6.788;2022-10-16T04:42:19;2.53;;;1.30;;
41927;SDS011;27616;51.420;6.788;2022-10-16T04:44:46;4.60;;;1.55;;
41927;SDS011;27616;51.420;6.788;2022-10-16T04:47:12;5.22;;;2.10;;
41927;SDS011;27616;51.420;6.788;2022-10-16T04:49:39;3.13;;;1.42;;
41927;SDS011;27616;51.420;6.788;2022-10-16T04:52:05;2.83;;;1.30;;
41927;SDS011;27616;51.420;6.788;2022-10-16T04:54:31;6.03;;;1.40;;
41927;SDS011;27616;51.420;6.788;2022-10-16T04:56:59;3.40;;;1.50;;
41927;SDS011;27616;51.420;6.788;2022-10-16T04:59:25;2.75;;;1.25;;
41927;SDS011;27616;51.420;6.788;2022-10-16T05:01:51;3.80;;;1.70;;
41927;SDS011;27616;51.420;6.788;2022-10-16T05:04:17;3.95;;;1.30;;
41927;SDS011;27616;51.420;6.788;2022-10-16T05:06:43;1.73;;;1.10;;
41927;SDS011;27616;51.420;6.788;2022-10-16T05:09:09;2.83;;;1.60;;
41927;SDS011;27616;51.420;6.788;2022-10-16T05:11:35;3.38;;;1.33;;
41927;SDS011;27616;51.420;6.788;2022-10-16T05:14:01;3.75;;;1.58;;
41927;SDS011;27616;51.420;6.788;2022-10-16T05:16:27;3.35;;;1.67;;
41927;SDS011;27616;51.420;6.788;2022-10-16T05:18:55;2.72;;;1.33;;
41927;SDS011;27616;51.420;6.788;2022-10-16T05:21:23;3.30;;;1.60;;
41927;SDS011;27616;51.420;6.788;2022-10-16T05:23:49;2.72;;;1.35;;
41927;SDS011;27616;51.420;6.788;2022-10-16T05:26:17;3.13;;;1.58;;
41927;SDS011;27616;51.420;6.788;2022-10-16T05:28:43;3.30;;;1.23;;
41927;SDS011;27616;51.420;6.788;2022-10-16T05:31:09;3.35;;;1.50;;
41927;SDS011;27616;51.420;6.788;2022-10-16T05:33:35;2.75;;;1.45;;
41927;SDS011;27616;51.420;6.788;2022-10-16T05:36:04;3.70;;;1.30;;
41927;SDS011;27616;51.420;6.788;2022-10-16T05:38:33;3.47;;;1.55;;
41927;SDS011;27616;51.420;6.788;2022-10-16T05:40:59;3.97;;;1.42;;
41927;SDS011;27616;51.420;6.788;2022-10-16T05:43:26;1.67;;;1.25;;
41927;SDS011;27616;51.420;6.788;2022-10-16T05:45:57;3.13;;;1.27;;
41927;SDS011;27616;51.420;6.788;2022-10-16T05:48:23;4.03;;;1.25;;
41927;SDS011;27616;51.420;6.788;2022-10-16T05:51:23;3.33;;;1.20;;
41927;SDS011;27616;51.420;6.788;2022-10-16T05:53:42;3.28;;;1.25;;
41927;SDS011;27616;51.420;6.788;2022-10-16T05:56:09;4.05;;;1.45;;
41927;SDS011;27616;51.420;6.788;2022-10-16T05:58:36;3.17;;;1.40;;
41927;SDS011;27616;51.420;6.788;2022-10-16T06:01:15;3.28;;;1.30;;
41927;SDS011;27616;51.420;6.788;2022-10-16T06:03:42;4.47;;;1.42;;
41927;SDS011;27616;51.420;6.788;2022-10-16T06:06:12;3.15;;;1.67;;
41927;SDS011;27616;51.420;6.788;2022-10-16T06:08:43;3.85;;;1.42;;
41927;SDS011;27616;51.420;6.788;2022-10-16T06:13:44;2.67;;;1.40;;
41927;SDS011;27616;51.420;6.788;2022-10-16T06:16:11;3.80;;;1.40;;
41927;SDS011;27616;51.420;6.788;2022-10-16T06:18:38;4.65;;;1.42;;
41927;SDS011;27616;51.420;6.788;2022-10-16T06:21:08;5.00;;;1.58;;
41927;SDS011;27616;51.420;6.788;2022-10-16T06:23:35;3.78;;;1.25;;
41927;SDS011;27616;51.420;6.788;2022-10-16T06:26:08;2.85;;;1.40;;
41927;SDS011;27616;51.420;6.788;2022-10-16T06:28:35;2.33;;;1.33;;
41927;SDS011;27616;51.420;6.788;2022-10-16T06:31:02;4.15;;;1.60;;
41927;SDS011;27616;51.420;6.788;2022-10-16T06:33:29;6.13;;;1.50;;
41927;SDS011;27616;51.420;6.788;2022-10-16T06:36:05;5.13;;;2.10;;
41927;SDS011;27616;51.420;6.788;2022-10-16T06:38:33;5.72;;;2.03;;
41927;SDS011;27616;51.420;6.788;2022-10-16T06:40:59;6.30;;;2.33;;
41927;SDS011;27616;51.420;6.788;2022-10-16T06:43:26;5.72;;;2.30;;
41927;SDS011;27616;51.420;6.788;2022-10-16T06:45:56;3.88;;;1.95;;
41927;SDS011;27616;51.420;6.788;2022-10-16T06:48:22;4.63;;;2.17;;
41927;SDS011;27616;51.420;6.788;2022-10-16T06:50:58;4.07;;;1.77;;
41927;SDS011;27616;51.420;6.788;2022-10-16T06:53:27;5.30;;;2.03;;
41927;SDS011;27616;51.420;6.788;2022-10-16T06:55:55;3.92;;;1.90;;
41927;SDS011;27616;51.420;6.788;2022-10-16T06:58:22;4.88;;;1.98;;
41927;SDS011;27616;51.420;6.788;2022-10-16T07:00:48;5.38;;;2.58;;
41927;SDS011;27616;51.420;6.788;2022-10-16T07:03:19;3.65;;;2.13;;
41927;SDS011;27616;51.420;6.788;2022-10-16T07:05:45;3.53;;;1.75;;
41927;SDS011;27616;51.420;6.788;2022-10-16T07:08:11;3.75;;;1.70;;
41927;SDS011;27616;51.420;6.788;2022-10-16T07:10:37;4.50;;;1.65;;
41927;SDS011;27616;51.420;6.788;2022-10-16T07:13:03;4.13;;;1.90;;
41927;SDS011;27616;51.420;6.788;2022-10-16T07:15:29;6.35;;;2.00;;
41927;SDS011;27616;51.420;6.788;2022-10-16T07:17:55;3.75;;;1.80;;
41927;SDS011;27616;51.420;6.788;2022-10-16T07:20:20;3.03;;;1.90;;
41927;SDS011;27616;51.420;6.788;2022-10-16T07:22:46;2.70;;;1.45;;
41927;SDS011;27616;51.420;6.788;2022-10-16T07:25:12;3.08;;;1.67;;
41927;SDS011;27616;51.420;6.788;2022-10-16T07:27:38;6.47;;;1.55;;
41927;SDS011;27616;51.420;6.788;2022-10-16T07:30:04;2.65;;;1.60;;
41927;SDS011;27616;51.420;6.788;2022-10-16T07:32:31;4.10;;;1.52;;
41927;SDS011;27616;51.420;6.788;2022-10-16T07:34:57;3.25;;;2.00;;
41927;SDS011;27616;51.420;6.788;2022-10-16T07:37:23;6.00;;;1.90;;
41927;SDS011;27616;51.420;6.788;2022-10-16T07:39:49;4.15;;;1.77;;
41927;SDS011;27616;51.420;6.788;2022-10-16T07:42:15;3.28;;;1.80;;
41927;SDS011;27616;51.420;6.788;2022-10-16T07:44:40;2.55;;;1.70;;
41927;SDS011;27616;51.420;6.788;2022-10-16T07:47:06;2.78;;;1.70;;
41927;SDS011;27616;51.420;6.788;2022-10-16T07:49:32;2.70;;;1.67;;
41927;SDS011;27616;51.420;6.788;2022-10-16T07:51:58;3.45;;;1.90;;
41927;SDS011;27616;51.420;6.788;2022-10-16T07:54:24;4.18;;;1.77;;
41927;SDS011;27616;51.420;6.788;2022-10-16T07:56:52;3.70;;;1.83;;
41927;SDS011;27616;51.420;6.788;2022-10-16T07:59:17;5.88;;;1.90;;
41927;SDS011;27616;51.420;6.788;2022-10-16T08:01:43;5.25;;;1.50;;
41927;SDS011;27616;51.420;6.788;2022-10-16T08:04:09;6.25;;;1.50;;
41927;SDS011;27616;51.420;6.788;2022-10-16T08:06:38;6.85;;;3.40;;
41927;SDS011;27616;51.420;6.788;2022-10-16T08:09:05;7.60;;;3.08;;
41927;SDS011;27616;51.420;6.788;2022-10-16T08:11:32;7.85;;;3.42;;
41927;SDS011;27616;51.420;6.788;2022-10-16T08:13:58;5.30;;;2.60;;
41927;SDS011;27616;51.420;6.788;2022-10-16T08:16:24;7.63;;;2.20;;
41927;SDS011;27616;51.420;6.788;2022-10-16T08:18:50;4.25;;;1.70;;
41927;SDS011;27616;51.420;6.788;2022-10-16T08:21:17;5.55;;;1.85;;
41927;SDS011;27616;51.420;6.788;2022-10-16T08:23:45;4.28;;;1.77;;
41927;SDS011;27616;51.420;6.788;2022-10-16T08:26:11;6.22;;;2.20;;
41927;SDS011;27616;51.420;6.788;2022-10-16T08:28:37;3.97;;;2.30;;
41927;SDS011;27616;51.420;6.788;2022-10-16T08:31:04;4.32;;;1.70;;
41927;SDS011;27616;51.420;6.788;2022-10-16T08:33:38;5.25;;;2.38;;
41927;SDS011;27616;51.420;6.788;2022-10-16T08:36:05;8.13;;;2.75;;
41927;SDS011;27616;51.420;6.788;2022-10-16T08:38:32;4.80;;;2.20;;
41927;SDS011;27616;51.420;6.788;2022-10-16T08:41:07;5.82;;;2.50;;
41927;SDS011;27616;51.420;6.788;2022-10-16T08:47:02;6.63;;;2.30;;
41927;SDS011;27616;51.420;6.788;2022-10-16T08:49:35;7.32;;;2.47;;
41927;SDS011;27616;51.420;6.788;2022-10-16T08:52:03;6.18;;;3.05;;
41927;SDS011;27616;51.420;6.788;2022-10-16T08:54:39;8.50;;;3.35;;
41927;SDS011;27616;51.420;6.788;2022-10-16T08:57:26;5.75;;;2.60;;
41927;SDS011;27616;51.420;6.788;2022-10-16T08:59:52;5.90;;;2.60;;
41927;SDS011;27616;51.420;6.788;2022-10-16T09:02:24;8.18;;;3.30;;
41927;SDS011;27616;51.420;6.788;2022-10-16T09:05:05;6.60;;;3.10;;
41927;SDS011;27616;51.420;6.788;2022-10-16T09:21:21;5.85;;;2.50;;
41927;SDS011;27616;51.420;6.788;2022-10-16T09:23:54;5.50;;;1.92;;
41927;SDS011;27616;51.420;6.788;2022-10-16T09:26:24;3.88;;;1.40;;
41927;SDS011;27616;51.420;6.788;2022-10-16T09:28:51;7.22;;;2.35;;
41927;SDS011;27616;51.420;6.788;2022-10-16T09:31:19;6.03;;;2.33;;
41927;SDS011;27616;51.420;6.788;2022-10-16T09:33:48;6.57;;;1.80;;
41927;SDS011;27616;51.420;6.788;2022-10-16T09:36:19;6.90;;;1.83;;
41927;SDS011;27616;51.420;6.788;2022-10-16T09:38:47;4.25;;;1.50;;
41927;SDS011;27616;51.420;6.788;2022-10-16T09:41:15;5.57;;;1.80;;
41927;SDS011;27616;51.420;6.788;2022-10-16T09:43:56;4.63;;;1.50;;
41927;SDS011;27616;51.420;6.788;2022-10-16T09:46:28;6.30;;;3.58;;
41927;SDS011;27616;51.420;6.788;2022-10-16T09:48:59;4.68;;;1.70;;
41927;SDS011;27616;51.420;6.788;2022-10-16T09:51:28;3.80;;;1.33;;
41927;SDS011;27616;51.420;6.788;2022-10-16T09:56:26;6.43;;;1.95;;
41927;SDS011;27616;51.420;6.788;2022-10-16T09:58:58;5.90;;;1.50;;
41927;SDS011;27616;51.420;6.788;2022-10-16T10:01:35;4.32;;;1.30;;
41927;SDS011;27616;51.420;6.788;2022-10-16T10:04:04;2.95;;;1.17;;
41927;SDS011;27616;51.420;6.788;2022-10-16T10:06:34;3.55;;;1.25;;
41927;SDS011;27616;51.420;6.788;2022-10-16T10:11:55;5.22;;;1.30;;
41927;SDS011;27616;51.420;6.788;2022-10-16T10:14:43;4.10;;;1.10;;
41927;SDS011;27616;51.420;6.788;2022-10-16T10:17:13;3.60;;;1.33;;
41927;SDS011;27616;51.420;6.788;2022-10-16T10:19:44;4.03;;;1.85;;
41927;SDS011;27616;51.420;6.788;2022-10-16T10:22:29;4.13;;;1.20;;
41927;SDS011;27616;51.420;6.788;2022-10-16T10:27:39;5.63;;;1.30;;
41927;SDS011;27616;51.420;6.788;2022-10-16T10:30:15;3.75;;;1.50;;
41927;SDS011;27616;51.420;6.788;2022-10-16T10:35:22;8.93;;;4.45;;
41927;SDS011;27616;51.420;6.788;2022-10-16T10:38:19;5.00;;;1.80;;
41927;SDS011;27616;51.420;6.788;2022-10-16T10:40:55;2.35;;;0.80;;
41927;SDS011;27616;51.420;6.788;2022-10-16T10:46:05;3.55;;;1.45;;
41927;SDS011;27616;51.420;6.788;2022-10-16T10:48:51;3.13;;;1.30;;
41927;SDS011;27616;51.420;6.788;2022-10-16T10:57:51;4.38;;;1.92;;
41927;SDS011;27616;51.420;6.788;2022-10-16T11:00:56;5.82;;;2.15;;
41927;SDS011;27616;51.420;6.788;2022-10-16T11:06:36;7.25;;;3.20;;
41927;SDS011;27616;51.420;6.788;2022-10-16T11:09:25;5.95;;;1.90;;
41927;SDS011;27616;51.420;6.788;2022-10-16T11:12:01;5.10;;;2.08;;
41927;SDS011;27616;51.420;6.788;2022-10-16T11:14:43;3.92;;;1.50;;
41927;SDS011;27616;51.420;6.788;2022-10-16T11:19:56;6.35;;;1.70;;
41927;SDS011;27616;51.420;6.788;2022-10-16T11:22:37;3.35;;;1.40;;
41927;SDS011;27616;51.420;6.788;2022-10-16T11:25:18;4.15;;;1.48;;
41927;SDS011;27616;51.420;6.788;2022-10-16T11:30:29;4.63;;;1.30;;
41927;SDS011;27616;51.420;6.788;2022-10-16T11:33:10;5.72;;;1.23;;
41927;SDS011;27616;51.420;6.788;2022-10-16T11:35:58;5.45;;;2.05;;
41927;SDS011;27616;51.420;6.788;2022-10-16T11:49:53;4.30;;;1.50;;
41927;SDS011;27616;51.420;6.788;2022-10-16T11:54:56;4.13;;;1.20;;
41927;SDS011;27616;51.420;6.788;2022-10-16T11:57:27;5.63;;;2.00;;
41927;SDS011;27616;51.420;6.788;2022-10-16T12:00:04;4.80;;;1.60;;
41927;SDS011;27616;51.420;6.788;2022-10-16T12:05:55;6.28;;;2.28;;
41927;SDS011;27616;51.420;6.788;2022-10-16T12:08:43;3.55;;;1.40;;
41927;SDS011;27616;51.420;6.788;2022-10-16T12:16:58;4.43;;;1.65;;
41927;SDS011;27616;51.420;6.788;2022-10-16T12:19:25;6.57;;;1.63;;
41927;SDS011;27616;51.420;6.788;2022-10-16T12:21:54;4.63;;;1.67;;
41927;SDS011;27616;51.420;6.788;2022-10-16T12:26:55;4.28;;;1.50;;
41927;SDS011;27616;51.420;6.788;2022-10-16T12:29:35;3.55;;;1.33;;
41927;SDS011;27616;51.420;6.788;2022-10-16T12:32:04;2.95;;;1.20;;
41927;SDS011;27616;51.420;6.788;2022-10-16T12:34:44;4.75;;;2.05;;
41927;SDS011;27616;51.420;6.788;2022-10-16T12:37:15;4.60;;;1.70;;
41927;SDS011;27616;51.420;6.788;2022-10-16T12:40:23;6.28;;;2.60;;
41927;SDS011;27616;51.420;6.788;2022-10-16T12:47:52;3.67;;;1.15;;
41927;SDS011;27616;51.420;6.788;2022-10-16T12:50:32;3.72;;;1.90;;
41927;SDS011;27616;51.420;6.788;2022-10-16T12:52:59;4.78;;;1.60;;
41927;SDS011;27616;51.420;6.788;2022-10-16T12:55:26;3.58;;;1.30;;
41927;SDS011;27616;51.420;6.788;2022-10-16T13:00:41;5.57;;;1.40;;
41927;SDS011;27616;51.420;6.788;2022-10-16T13:11:44;3.75;;;1.50;;
41927;SDS011;27616;51.420;6.788;2022-10-16T13:14:36;6.45;;;2.30;;
41927;SDS011;27616;51.420;6.788;2022-10-16T13:17:23;4.90;;;2.20;;
41927;SDS011;27616;51.420;6.788;2022-10-16T13:20:16;5.88;;;3.22;;
41927;SDS011;27616;51.420;6.788;2022-10-16T13:28:31;6.10;;;2.63;;
41927;SDS011;27616;51.420;6.788;2022-10-16T13:31:00;5.60;;;2.20;;
41927;SDS011;27616;51.420;6.788;2022-10-16T13:36:00;4.07;;;1.80;;
41927;SDS011;27616;51.420;6.788;2022-10-16T13:38:28;4.55;;;1.70;;
41927;SDS011;27616;51.420;6.788;2022-10-16T13:43:32;5.60;;;1.35;;
41927;SDS011;27616;51.420;6.788;2022-10-16T13:46:05;4.25;;;1.40;;
41927;SDS011;27616;51.420;6.788;2022-10-16T13:48:36;4.90;;;1.40;;
41927;SDS011;27616;51.420;6.788;2022-10-16T13:53:36;3.85;;;1.20;;
41927;SDS011;27616;51.420;6.788;2022-10-16T13:56:03;3.42;;;1.02;;
41927;SDS011;27616;51.420;6.788;2022-10-16T13:58:30;3.90;;;1.17;;
41927;SDS011;27616;51.420;6.788;2022-10-16T14:01:03;4.20;;;1.30;;
41927;SDS011;27616;51.420;6.788;2022-10-16T14:03:38;4.65;;;1.20;;
41927;SDS011;27616;51.420;6.788;2022-10-16T14:06:06;3.20;;;1.15;;
41927;SDS011;27616;51.420;6.788;2022-10-16T14:08:40;4.97;;;1.65;;
41927;SDS011;27616;51.420;6.788;2022-10-16T14:11:09;4.93;;;1.45;;
41927;SDS011;27616;51.420;6.788;2022-10-16T14:13:37;3.97;;;1.58;;
41927;SDS011;27616;51.420;6.788;2022-10-16T14:16:09;4.22;;;1.20;;
41927;SDS011;27616;51.420;6.788;2022-10-16T14:18:37;3.55;;;1.20;;
41927;SDS011;27616;51.420;6.788;2022-10-16T14:21:05;2.83;;;0.93;;
41927;SDS011;27616;51.420;6.788;2022-10-16T14:23:36;3.57;;;1.07;;
41927;SDS011;27616;51.420;6.788;2022-10-16T14:28:36;2.80;;;0.80;;
41927;SDS011;27616;51.420;6.788;2022-10-16T14:31:16;3.17;;;1.13;;
41927;SDS011;27616;51.420;6.788;2022-10-16T14:36:17;2.33;;;1.20;;
41927;SDS011;27616;51.420;6.788;2022-10-16T14:39:01;3.33;;;0.82;;
41927;SDS011;27616;51.420;6.788;2022-10-16T14:41:32;3.63;;;1.13;;
41927;SDS011;27616;51.420;6.788;2022-10-16T14:44:13;3.85;;;1.50;;
41927;SDS011;27616;51.420;6.788;2022-10-16T14:46:40;3.15;;;1.50;;
41927;SDS011;27616;51.420;6.788;2022-10-16T14:51:36;4.88;;;2.13;;
41927;SDS011;27616;51.420;6.788;2022-10-16T14:54:03;4.63;;;2.22;;
41927;SDS011;27616;51.420;6.788;2022-10-16T14:56:30;4.95;;;2.17;;
41927;SDS011;27616;51.420;6.788;2022-10-16T14:58:59;5.07;;;2.05;;
41927;SDS011;27616;51.420;6.788;2022-10-16T15:01:27;6.53;;;2.00;;
41927;SDS011;27616;51.420;6.788;2022-10-16T15:03:53;3.22;;;1.67;;
41927;SDS011;27616;51.420;6.788;2022-10-16T15:06:20;6.88;;;1.98;;
41927;SDS011;27616;51.420;6.788;2022-10-16T15:08:46;5.10;;;1.60;;
41927;SDS011;27616;51.420;6.788;2022-10-16T15:11:15;5.38;;;1.70;;
41927;SDS011;27616;51.420;6.788;2022-10-16T15:13:42;3.83;;;1.50;;
41927;SDS011;27616;51.420;6.788;2022-10-16T15:16:12;5.57;;;1.80;;
41927;SDS011;27616;51.420;6.788;2022-10-16T15:18:39;3.65;;;1.50;;
41927;SDS011;27616;51.420;6.788;2022-10-16T15:21:05;3.30;;;1.30;;
41927;SDS011;27616;51.420;6.788;2022-10-16T15:23:31;5.05;;;1.60;;
41927;SDS011;27616;51.420;6.788;2022-10-16T15:25:57;5.72;;;1.75;;
41927;SDS011;27616;51.420;6.788;2022-10-16T15:28:23;4.10;;;1.73;;
41927;SDS011;27616;51.420;6.788;2022-10-16T15:30:51;4.80;;;1.80;;
41927;SDS011;27616;51.420;6.788;2022-10-16T15:33:19;4.75;;;1.88;;
41927;SDS011;27616;51.420;6.788;2022-10-16T15:35:51;5.38;;;1.83;;
41927;SDS011;27616;51.420;6.788;2022-10-16T15:38:17;3.38;;;1.73;;
41927;SDS011;27616;51.420;6.788;2022-10-16T15:40:45;3.88;;;1.80;;
41927;SDS011;27616;51.420;6.788;2022-10-16T15:43:12;5.85;;;2.10;;
41927;SDS011;27616;51.420;6.788;2022-10-16T15:45:38;5.85;;;1.95;;
41927;SDS011;27616;51.420;6.788;2022-10-16T15:48:03;5.80;;;1.95;;
41927;SDS011;27616;51.420;6.788;2022-10-16T15:50:30;4.95;;;2.20;;
41927;SDS011;27616;51.420;6.788;2022-10-16T15:52:56;5.45;;;1.90;;
41927;SDS011;27616;51.420;6.788;2022-10-16T15:55:22;4.25;;;1.77;;
41927;SDS011;27616;51.420;6.788;2022-10-16T15:57:48;3.95;;;1.70;;
41927;SDS011;27616;51.420;6.788;2022-10-16T16:00:15;5.20;;;1.77;;
41927;SDS011;27616;51.420;6.788;2022-10-16T16:02:42;3.15;;;1.30;;
41927;SDS011;27616;51.420;6.788;2022-10-16T16:05:09;3.78;;;1.30;;
41927;SDS011;27616;51.420;6.788;2022-10-16T16:07:36;3.92;;;1.50;;
41927;SDS011;27616;51.420;6.788;2022-10-16T16:10:04;4.60;;;1.40;;
41927;SDS011;27616;51.420;6.788;2022-10-16T16:12:31;3.83;;;1.63;;
41927;SDS011;27616;51.420;6.788;2022-10-16T16:14:57;2.92;;;1.15;;
41927;SDS011;27616;51.420;6.788;2022-10-16T16:17:23;3.92;;;1.38;;
41927;SDS011;27616;51.420;6.788;2022-10-16T16:19:49;4.28;;;1.40;;
41927;SDS011;27616;51.420;6.788;2022-10-16T16:22:15;4.25;;;1.25;;
41927;SDS011;27616;51.420;6.788;2022-10-16T16:24:41;3.63;;;1.92;;
41927;SDS011;27616;51.420;6.788;2022-10-16T16:27:07;3.33;;;1.60;;
41927;SDS011;27616;51.420;6.788;2022-10-16T16:29:33;3.97;;;1.42;;
41927;SDS011;27616;51.420;6.788;2022-10-16T16:31:59;5.78;;;1.67;;
41927;SDS011;27616;51.420;6.788;2022-10-16T16:34:26;4.15;;;1.65;;
41927;SDS011;27616;51.420;6.788;2022-10-16T16:36:53;4.95;;;1.98;;
41927;SDS011;27616;51.420;6.788;2022-10-16T16:39:22;6.18;;;2.80;;
41927;SDS011;27616;51.420;6.788;2022-10-16T16:41:48;6.57;;;3.85;;
41927;SDS011;27616;51.420;6.788;2022-10-16T16:44:14;9.18;;;5.47;;
41927;SDS011;27616;51.420;6.788;2022-10-16T16:46:41;11.35;;;5.90;;
41927;SDS011;27616;51.420;6.788;2022-10-16T16:49:09;11.77;;;5.97;;
41927;SDS011;27616;51.420;6.788;2022-10-16T16:51:36;8.98;;;5.30;;
41927;SDS011;27616;51.420;6.788;2022-10-16T16:54:02;8.45;;;4.40;;
41927;SDS011;27616;51.420;6.788;2022-10-16T16:56:28;10.40;;;4.13;;
41927;SDS011;27616;51.420;6.788;2022-10-16T16:58:54;8.07;;;3.92;;
41927;SDS011;27616;51.420;6.788;2022-10-16T17:01:22;7.28;;;3.30;;
41927;SDS011;27616;51.420;6.788;2022-10-16T17:03:49;6.82;;;3.15;;
41927;SDS011;27616;51.420;6.788;2022-10-16T17:06:17;10.18;;;2.60;;
41927;SDS011;27616;51.420;6.788;2022-10-16T17:08:48;8.25;;;2.80;;
41927;SDS011;27616;51.420;6.788;2022-10-16T17:11:14;6.22;;;2.63;;
41927;SDS011;27616;51.420;6.788;2022-10-16T17:13:45;5.60;;;2.50;;
41927;SDS011;27616;51.420;6.788;2022-10-16T17:16:11;6.25;;;2.55;;
41927;SDS011;27616;51.420;6.788;2022-10-16T17:18:37;3.95;;;2.20;;
41927;SDS011;27616;51.420;6.788;2022-10-16T17:21:06;5.90;;;2.40;;
41927;SDS011;27616;51.420;6.788;2022-10-16T17:23:36;7.15;;;3.45;;
41927;SDS011;27616;51.420;6.788;2022-10-16T17:26:03;15.70;;;8.57;;
41927;SDS011;27616;51.420;6.788;2022-10-16T17:28:35;16.13;;;8.02;;